sensor_id;sensor_type;location;lat;lon;timestamp;temperature;humidity
47600;DHT22;33323;52.124;6.018;2023-06-22T00:00:12;18.40;99.90
47600;DHT22;33323;52.124;6.018;2023-06-22T00:02:39;18.30;99.90
47600;DHT22;33323;52.124;6.018;2023-06-22T00:05:07;18.20;99.90
47600;DHT22;33323;52.124;6.018;2023-06-22T00:07:34;18.20;99.90
47600;DHT22;33323;52.124;6.018;2023-06-22T00:10:00;18.20;99.90
47600;DHT22;33323;52.124;6.018;2023-06-22T00:12:27;18.20;99.90
47600;DHT22;33323;52.124;6.018;2023-06-22T00:14:54;18.20;99.90
47600;DHT22;33323;52.124;6.018;2023-06-22T00:17:21;18.20;99.90
47600;DHT22;33323;52.124;6.018;2023-06-22T00:19:48;18.00;99.90
47600;DHT22;33323;52.124;6.018;2023-06-22T00:22:20;18.00;99.90
47600;DHT22;33323;52.124;6.018;2023-06-22T00:24:56;17.90;99.90
47600;DHT22;33323;52.124;6.018;2023-06-22T00:27:23;17.80;99.90
47600;DHT22;33323;52.124;6.018;2023-06-22T00:29:50;17.80;99.90
47600;DHT22;33323;52.124;6.018;2023-06-22T00:32:17;17.80;99.90
47600;DHT22;33323;52.124;6.018;2023-06-22T00:34:46;17.80;99.90
47600;DHT22;33323;52.124;6.018;2023-06-22T00:37:14;17.80;99.90
47600;DHT22;33323;52.124;6.018;2023-06-22T00:39:41;17.80;99.90
47600;DHT22;33323;52.124;6.018;2023-06-22T00:42:10;17.80;99.90
47600;DHT22;33323;52.124;6.018;2023-06-22T00:44:37;17.80;99.90
47600;DHT22;33323;52.124;6.018;2023-06-22T00:47:04;17.80;99.90
47600;DHT22;33323;52.124;6.018;2023-06-22T00:49:33;17.80;99.90
47600;DHT22;33323;52.124;6.018;2023-06-22T00:52:00;17.70;99.90
47600;DHT22;33323;52.124;6.018;2023-06-22T00:54:27;17.60;99.90
47600;DHT22;33323;52.124;6.018;2023-06-22T00:56:55;17.60;99.90
47600;DHT22;33323;52.124;6.018;2023-06-22T00:59:24;17.50;99.90
47600;DHT22;33323;52.124;6.018;2023-06-22T01:01:53;17.50;99.90
47600;DHT22;33323;52.124;6.018;2023-06-22T01:04:21;17.60;99.90
47600;DHT22;33323;52.124;6.018;2023-06-22T01:07:17;17.60;99.90
47600;DHT22;33323;52.124;6.018;2023-06-22T01:10:03;17.60;99.90
47600;DHT22;33323;52.124;6.018;2023-06-22T01:12:42;17.50;99.90
47600;DHT22;33323;52.124;6.018;2023-06-22T01:15:23;17.40;99.90
47600;DHT22;33323;52.124;6.018;2023-06-22T01:17:52;17.40;99.90
47600;DHT22;33323;52.124;6.018;2023-06-22T01:20:21;17.30;99.90
47600;DHT22;33323;52.124;6.018;2023-06-22T01:26:38;17.20;99.90
47600;DHT22;33323;52.124;6.018;2023-06-22T01:28:54;17.20;99.90
47600;DHT22;33323;52.124;6.018;2023-06-22T01:31:25;17.20;99.90
47600;DHT22;33323;52.124;6.018;2023-06-22T01:33:58;17.10;99.90
47600;DHT22;33323;52.124;6.018;2023-06-22T01:36:29;17.00;99.90
47600;DHT22;33323;52.124;6.018;2023-06-22T01:38:58;16.90;99.90
47600;DHT22;33323;52.124;6.018;2023-06-22T01:41:26;16.90;99.90
47600;DHT22;33323;52.124;6.018;2023-06-22T01:43:56;16.80;99.90
47600;DHT22;33323;52.124;6.018;2023-06-22T01:46:23;16.70;99.90
47600;DHT22;33323;52.124;6.018;2023-06-22T01:48:50;16.60;99.90
47600;DHT22;33323;52.124;6.018;2023-06-22T01:51:18;16.60;99.90
47600;DHT22;33323;52.124;6.018;2023-06-22T01:53:45;16.60;99.90
47600;DHT22;33323;52.124;6.018;2023-06-22T01:56:17;16.60;99.90
47600;DHT22;33323;52.124;6.018;2023-06-22T01:58:51;16.40;99.90
47600;DHT22;33323;52.124;6.018;2023-06-22T02:02:01;16.30;99.90
47600;DHT22;33323;52.124;6.018;2023-06-22T02:04:51;16.30;99.90
47600;DHT22;33323;52.124;6.018;2023-06-22T02:10:40;16.20;99.90
47600;DHT22;33323;52.124;6.018;2023-06-22T02:13:09;16.20;99.90
47600;DHT22;33323;52.124;6.018;2023-06-22T02:15:37;16.10;99.90
47600;DHT22;33323;52.124;6.018;2023-06-22T02:18:04;16.10;99.90
47600;DHT22;33323;52.124;6.018;2023-06-22T02:20:32;16.00;99.90
47600;DHT22;33323;52.124;6.018;2023-06-22T02:22:59;16.10;99.90
47600;DHT22;33323;52.124;6.018;2023-06-22T02:25:26;16.20;99.90
47600;DHT22;33323;52.124;6.018;2023-06-22T02:27:53;16.00;99.90
47600;DHT22;33323;52.124;6.018;2023-06-22T02:30:20;16.00;99.90
47600;DHT22;33323;52.124;6.018;2023-06-22T02:32:47;16.10;99.90
47600;DHT22;33323;52.124;6.018;2023-06-22T02:35:15;16.20;99.90
47600;DHT22;33323;52.124;6.018;2023-06-22T02:37:42;16.20;99.90
47600;DHT22;33323;52.124;6.018;2023-06-22T02:40:10;16.20;99.90
47600;DHT22;33323;52.124;6.018;2023-06-22T02:42:39;16.30;99.90
47600;DHT22;33323;52.124;6.018;2023-06-22T02:45:06;16.30;99.90
47600;DHT22;33323;52.124;6.018;2023-06-22T02:47:34;16.20;99.90
47600;DHT22;33323;52.124;6.018;2023-06-22T02:50:02;16.20;99.90
47600;DHT22;33323;52.124;6.018;2023-06-22T02:52:32;16.10;99.90
47600;DHT22;33323;52.124;6.018;2023-06-22T02:55:01;16.20;99.90
47600;DHT22;33323;52.124;6.018;2023-06-22T02:57:29;16.20;99.90
47600;DHT22;33323;52.124;6.018;2023-06-22T02:59:56;16.20;99.90
47600;DHT22;33323;52.124;6.018;2023-06-22T03:02:23;16.00;99.90
47600;DHT22;33323;52.124;6.018;2023-06-22T03:04:50;15.90;99.90
47600;DHT22;33323;52.124;6.018;2023-06-22T03:07:20;15.90;99.90
47600;DHT22;33323;52.124;6.018;2023-06-22T03:09:49;15.90;99.90
47600;DHT22;33323;52.124;6.018;2023-06-22T03:12:16;15.90;99.90
47600;DHT22;33323;52.124;6.018;2023-06-22T03:14:52;15.80;99.90
47600;DHT22;33323;52.124;6.018;2023-06-22T03:17:19;15.70;99.90
47600;DHT22;33323;52.124;6.018;2023-06-22T03:19:47;15.70;99.90
47600;DHT22;33323;52.124;6.018;2023-06-22T03:22:14;15.80;99.90
47600;DHT22;33323;52.124;6.018;2023-06-22T03:24:41;15.80;99.90
47600;DHT22;33323;52.124;6.018;2023-06-22T03:27:08;15.80;99.90
47600;DHT22;33323;52.124;6.018;2023-06-22T03:29:35;15.70;99.90
47600;DHT22;33323;52.124;6.018;2023-06-22T03:32:03;15.70;99.90
47600;DHT22;33323;52.124;6.018;2023-06-22T03:34:32;15.60;99.90
47600;DHT22;33323;52.124;6.018;2023-06-22T03:37:00;15.40;99.90
47600;DHT22;33323;52.124;6.018;2023-06-22T03:39:28;15.30;99.90
47600;DHT22;33323;52.124;6.018;2023-06-22T03:41:55;15.20;99.90
47600;DHT22;33323;52.124;6.018;2023-06-22T03:44:23;15.10;99.90
47600;DHT22;33323;52.124;6.018;2023-06-22T03:46:50;15.20;99.90
47600;DHT22;33323;52.124;6.018;2023-06-22T03:49:18;15.20;99.90
47600;DHT22;33323;52.124;6.018;2023-06-22T03:51:45;15.20;99.90
47600;DHT22;33323;52.124;6.018;2023-06-22T03:54:12;15.30;99.90
47600;DHT22;33323;52.124;6.018;2023-06-22T03:56:39;15.40;99.90
47600;DHT22;33323;52.124;6.018;2023-06-22T03:59:06;15.40;99.90
47600;DHT22;33323;52.124;6.018;2023-06-22T04:01:33;15.50;99.90
47600;DHT22;33323;52.124;6.018;2023-06-22T04:04:00;15.60;99.90
47600;DHT22;33323;52.124;6.018;2023-06-22T04:06:28;15.60;99.90
47600;DHT22;33323;52.124;6.018;2023-06-22T04:08:55;15.60;99.90
47600;DHT22;33323;52.124;6.018;2023-06-22T04:11:22;15.70;99.90
47600;DHT22;33323;52.124;6.018;2023-06-22T04:13:49;15.90;99.90
47600;DHT22;33323;52.124;6.018;2023-06-22T04:16:18;15.90;99.90
47600;DHT22;33323;52.124;6.018;2023-06-22T04:18:45;15.90;99.90
47600;DHT22;33323;52.124;6.018;2023-06-22T04:21:13;15.80;99.90
47600;DHT22;33323;52.124;6.018;2023-06-22T04:23:40;15.80;99.90
47600;DHT22;33323;52.124;6.018;2023-06-22T04:26:07;15.80;99.90
47600;DHT22;33323;52.124;6.018;2023-06-22T04:28:34;15.90;99.90
47600;DHT22;33323;52.124;6.018;2023-06-22T04:31:02;16.00;99.90
47600;DHT22;33323;52.124;6.018;2023-06-22T04:33:29;16.20;99.90
47600;DHT22;33323;52.124;6.018;2023-06-22T04:35:58;16.70;99.90
47600;DHT22;33323;52.124;6.018;2023-06-22T04:38:27;17.10;99.90
47600;DHT22;33323;52.124;6.018;2023-06-22T04:40:55;17.30;99.90
47600;DHT22;33323;52.124;6.018;2023-06-22T04:43:22;17.60;99.90
47600;DHT22;33323;52.124;6.018;2023-06-22T04:45:49;17.70;99.90
47600;DHT22;33323;52.124;6.018;2023-06-22T04:48:19;18.00;99.90
47600;DHT22;33323;52.124;6.018;2023-06-22T04:50:47;18.20;99.90
47600;DHT22;33323;52.124;6.018;2023-06-22T04:53:14;18.60;99.90
47600;DHT22;33323;52.124;6.018;2023-06-22T04:55:41;18.90;99.90
47600;DHT22;33323;52.124;6.018;2023-06-22T04:58:12;19.20;99.90
47600;DHT22;33323;52.124;6.018;2023-06-22T05:00:40;19.50;99.90
47600;DHT22;33323;52.124;6.018;2023-06-22T05:03:07;19.50;99.90
47600;DHT22;33323;52.124;6.018;2023-06-22T05:05:46;19.70;99.90
47600;DHT22;33323;52.124;6.018;2023-06-22T05:08:13;19.70;99.90
47600;DHT22;33323;52.124;6.018;2023-06-22T05:10:41;19.80;99.90
47600;DHT22;33323;52.124;6.018;2023-06-22T05:13:28;20.00;99.90
47600;DHT22;33323;52.124;6.018;2023-06-22T05:15:56;20.10;99.90
47600;DHT22;33323;52.124;6.018;2023-06-22T05:18:29;20.20;99.90
47600;DHT22;33323;52.124;6.018;2023-06-22T05:20:58;20.50;99.90
47600;DHT22;33323;52.124;6.018;2023-06-22T05:23:26;20.80;99.90
47600;DHT22;33323;52.124;6.018;2023-06-22T05:25:53;21.10;99.90
47600;DHT22;33323;52.124;6.018;2023-06-22T05:28:21;21.30;99.90
47600;DHT22;33323;52.124;6.018;2023-06-22T05:30:51;21.50;99.90
47600;DHT22;33323;52.124;6.018;2023-06-22T05:33:18;21.70;99.90
47600;DHT22;33323;52.124;6.018;2023-06-22T05:35:45;21.80;99.90
47600;DHT22;33323;52.124;6.018;2023-06-22T05:38:12;21.80;99.90
47600;DHT22;33323;52.124;6.018;2023-06-22T05:40:39;21.80;99.90
47600;DHT22;33323;52.124;6.018;2023-06-22T05:43:06;21.80;99.90
47600;DHT22;33323;52.124;6.018;2023-06-22T05:45:33;21.90;99.90
47600;DHT22;33323;52.124;6.018;2023-06-22T05:48:00;21.70;99.90
47600;DHT22;33323;52.124;6.018;2023-06-22T05:50:28;21.60;99.90
47600;DHT22;33323;52.124;6.018;2023-06-22T05:52:56;21.70;99.90
47600;DHT22;33323;52.124;6.018;2023-06-22T05:55:24;21.80;99.90
47600;DHT22;33323;52.124;6.018;2023-06-22T05:57:51;22.00;99.90
47600;DHT22;33323;52.124;6.018;2023-06-22T06:00:19;22.00;99.90
47600;DHT22;33323;52.124;6.018;2023-06-22T06:02:47;22.30;99.90
47600;DHT22;33323;52.124;6.018;2023-06-22T06:05:16;22.20;99.90
47600;DHT22;33323;52.124;6.018;2023-06-22T06:07:45;22.40;99.90
47600;DHT22;33323;52.124;6.018;2023-06-22T06:10:13;22.70;99.90
47600;DHT22;33323;52.124;6.018;2023-06-22T06:12:42;22.80;99.90
47600;DHT22;33323;52.124;6.018;2023-06-22T06:15:09;23.00;99.90
47600;DHT22;33323;52.124;6.018;2023-06-22T06:17:48;23.20;99.90
47600;DHT22;33323;52.124;6.018;2023-06-22T06:20:24;23.10;99.90
47600;DHT22;33323;52.124;6.018;2023-06-22T06:22:53;22.90;99.90
47600;DHT22;33323;52.124;6.018;2023-06-22T06:25:21;22.90;99.90
47600;DHT22;33323;52.124;6.018;2023-06-22T06:27:50;23.00;99.90
47600;DHT22;33323;52.124;6.018;2023-06-22T06:30:19;23.10;99.90
47600;DHT22;33323;52.124;6.018;2023-06-22T06:32:46;23.20;99.90
47600;DHT22;33323;52.124;6.018;2023-06-22T06:35:15;23.20;99.90
47600;DHT22;33323;52.124;6.018;2023-06-22T06:37:47;23.30;99.90
47600;DHT22;33323;52.124;6.018;2023-06-22T06:40:16;23.40;99.90
47600;DHT22;33323;52.124;6.018;2023-06-22T06:42:46;23.40;99.90
47600;DHT22;33323;52.124;6.018;2023-06-22T06:45:16;23.80;99.90
47600;DHT22;33323;52.124;6.018;2023-06-22T06:47:45;23.90;99.90
47600;DHT22;33323;52.124;6.018;2023-06-22T06:50:13;23.80;99.90
47600;DHT22;33323;52.124;6.018;2023-06-22T06:52:41;23.60;99.90
47600;DHT22;33323;52.124;6.018;2023-06-22T06:55:09;23.50;99.90
47600;DHT22;33323;52.124;6.018;2023-06-22T06:57:39;23.60;99.90
47600;DHT22;33323;52.124;6.018;2023-06-22T07:00:10;23.70;99.90
47600;DHT22;33323;52.124;6.018;2023-06-22T07:02:40;23.90;99.90
47600;DHT22;33323;52.124;6.018;2023-06-22T07:05:12;23.80;99.90
47600;DHT22;33323;52.124;6.018;2023-06-22T07:07:40;24.20;99.90
47600;DHT22;33323;52.124;6.018;2023-06-22T07:10:09;24.10;99.90
47600;DHT22;33323;52.124;6.018;2023-06-22T07:12:36;24.40;99.90
47600;DHT22;33323;52.124;6.018;2023-06-22T07:15:05;24.60;99.90
47600;DHT22;33323;52.124;6.018;2023-06-22T07:17:36;24.50;99.90
47600;DHT22;33323;52.124;6.018;2023-06-22T07:20:04;24.40;99.90
47600;DHT22;33323;52.124;6.018;2023-06-22T07:22:43;24.50;99.90
47600;DHT22;33323;52.124;6.018;2023-06-22T07:25:14;24.30;99.90
47600;DHT22;33323;52.124;6.018;2023-06-22T07:27:56;24.10;99.90
47600;DHT22;33323;52.124;6.018;2023-06-22T07:30:25;24.00;99.90
47600;DHT22;33323;52.124;6.018;2023-06-22T07:32:54;23.90;99.90
47600;DHT22;33323;52.124;6.018;2023-06-22T07:35:22;24.20;99.90
47600;DHT22;33323;52.124;6.018;2023-06-22T07:37:49;24.30;99.90
47600;DHT22;33323;52.124;6.018;2023-06-22T07:40:17;24.70;99.90
47600;DHT22;33323;52.124;6.018;2023-06-22T07:42:44;24.70;99.90
47600;DHT22;33323;52.124;6.018;2023-06-22T07:45:12;24.40;99.90
47600;DHT22;33323;52.124;6.018;2023-06-22T07:47:39;24.40;99.90
47600;DHT22;33323;52.124;6.018;2023-06-22T07:50:06;24.60;99.90
47600;DHT22;33323;52.124;6.018;2023-06-22T07:52:34;24.90;99.90
47600;DHT22;33323;52.124;6.018;2023-06-22T07:55:02;25.40;99.90
47600;DHT22;33323;52.124;6.018;2023-06-22T07:57:30;25.10;99.90
47600;DHT22;33323;52.124;6.018;2023-06-22T08:00:03;25.10;99.90
47600;DHT22;33323;52.124;6.018;2023-06-22T08:02:45;25.30;99.90
47600;DHT22;33323;52.124;6.018;2023-06-22T08:05:15;25.30;99.90
47600;DHT22;33323;52.124;6.018;2023-06-22T08:07:49;25.00;99.90
47600;DHT22;33323;52.124;6.018;2023-06-22T08:10:18;25.30;99.90
47600;DHT22;33323;52.124;6.018;2023-06-22T08:12:46;25.40;99.90
47600;DHT22;33323;52.124;6.018;2023-06-22T08:15:13;25.30;99.90
47600;DHT22;33323;52.124;6.018;2023-06-22T08:17:41;25.20;99.90
47600;DHT22;33323;52.124;6.018;2023-06-22T08:20:09;25.30;99.90
47600;DHT22;33323;52.124;6.018;2023-06-22T08:22:43;25.50;99.90
47600;DHT22;33323;52.124;6.018;2023-06-22T08:25:11;25.40;99.90
47600;DHT22;33323;52.124;6.018;2023-06-22T08:27:40;25.10;99.90
47600;DHT22;33323;52.124;6.018;2023-06-22T08:30:09;25.00;99.90
47600;DHT22;33323;52.124;6.018;2023-06-22T08:32:38;24.90;99.90
47600;DHT22;33323;52.124;6.018;2023-06-22T08:35:06;24.90;99.90
47600;DHT22;33323;52.124;6.018;2023-06-22T08:37:36;24.80;99.90
47600;DHT22;33323;52.124;6.018;2023-06-22T08:40:08;24.90;99.90
47600;DHT22;33323;52.124;6.018;2023-06-22T08:42:37;25.10;99.90
47600;DHT22;33323;52.124;6.018;2023-06-22T08:45:05;25.40;99.90
47600;DHT22;33323;52.124;6.018;2023-06-22T08:47:33;25.30;99.90
47600;DHT22;33323;52.124;6.018;2023-06-22T08:50:01;25.40;99.90
47600;DHT22;33323;52.124;6.018;2023-06-22T08:52:30;25.70;99.90
47600;DHT22;33323;52.124;6.018;2023-06-22T08:54:58;26.00;99.90
47600;DHT22;33323;52.124;6.018;2023-06-22T08:57:26;26.10;99.90
47600;DHT22;33323;52.124;6.018;2023-06-22T08:59:54;26.00;99.90
47600;DHT22;33323;52.124;6.018;2023-06-22T09:02:26;25.90;99.90
47600;DHT22;33323;52.124;6.018;2023-06-22T09:04:58;26.00;99.90
47600;DHT22;33323;52.124;6.018;2023-06-22T09:07:26;25.70;99.90
47600;DHT22;33323;52.124;6.018;2023-06-22T09:09:53;25.50;99.90
47600;DHT22;33323;52.124;6.018;2023-06-22T09:12:20;25.50;99.90
47600;DHT22;33323;52.124;6.018;2023-06-22T09:14:53;25.50;99.90
47600;DHT22;33323;52.124;6.018;2023-06-22T09:17:21;25.40;99.90
47600;DHT22;33323;52.124;6.018;2023-06-22T09:19:49;25.30;99.90
47600;DHT22;33323;52.124;6.018;2023-06-22T09:22:16;25.40;99.90
47600;DHT22;33323;52.124;6.018;2023-06-22T09:24:43;25.40;99.90
47600;DHT22;33323;52.124;6.018;2023-06-22T09:27:10;25.60;99.90
47600;DHT22;33323;52.124;6.018;2023-06-22T09:29:38;25.60;99.90
47600;DHT22;33323;52.124;6.018;2023-06-22T09:32:06;25.60;99.90
47600;DHT22;33323;52.124;6.018;2023-06-22T09:34:34;25.90;99.90
47600;DHT22;33323;52.124;6.018;2023-06-22T09:37:01;26.00;99.90
47600;DHT22;33323;52.124;6.018;2023-06-22T09:39:29;26.10;99.90
47600;DHT22;33323;52.124;6.018;2023-06-22T09:41:58;26.20;99.90
47600;DHT22;33323;52.124;6.018;2023-06-22T09:44:29;26.00;99.90
47600;DHT22;33323;52.124;6.018;2023-06-22T09:46:57;25.90;99.90
47600;DHT22;33323;52.124;6.018;2023-06-22T09:49:24;26.00;99.90
47600;DHT22;33323;52.124;6.018;2023-06-22T09:52:11;25.80;99.90
47600;DHT22;33323;52.124;6.018;2023-06-22T09:54:38;25.80;99.90
47600;DHT22;33323;52.124;6.018;2023-06-22T09:57:06;25.70;99.90
47600;DHT22;33323;52.124;6.018;2023-06-22T09:59:33;25.80;99.90
47600;DHT22;33323;52.124;6.018;2023-06-22T10:02:01;25.90;99.90
47600;DHT22;33323;52.124;6.018;2023-06-22T10:04:28;25.90;99.90
47600;DHT22;33323;52.124;6.018;2023-06-22T10:06:57;26.00;99.90
47600;DHT22;33323;52.124;6.018;2023-06-22T10:09:24;26.10;99.90
47600;DHT22;33323;52.124;6.018;2023-06-22T10:11:52;26.20;99.90
47600;DHT22;33323;52.124;6.018;2023-06-22T10:14:19;26.10;99.90
47600;DHT22;33323;52.124;6.018;2023-06-22T10:16:48;25.90;99.90
47600;DHT22;33323;52.124;6.018;2023-06-22T10:19:15;25.70;99.90
47600;DHT22;33323;52.124;6.018;2023-06-22T10:21:43;25.50;99.90
47600;DHT22;33323;52.124;6.018;2023-06-22T10:24:10;25.50;99.90
47600;DHT22;33323;52.124;6.018;2023-06-22T10:26:38;25.30;99.90
47600;DHT22;33323;52.124;6.018;2023-06-22T10:29:05;25.20;99.90
47600;DHT22;33323;52.124;6.018;2023-06-22T10:31:42;25.20;99.90
47600;DHT22;33323;52.124;6.018;2023-06-22T10:34:10;25.10;99.90
47600;DHT22;33323;52.124;6.018;2023-06-22T10:36:38;25.10;99.90
47600;DHT22;33323;52.124;6.018;2023-06-22T10:39:06;25.10;99.90
47600;DHT22;33323;52.124;6.018;2023-06-22T10:41:33;25.20;99.90
47600;DHT22;33323;52.124;6.018;2023-06-22T10:44:01;25.10;99.90
47600;DHT22;33323;52.124;6.018;2023-06-22T10:46:29;25.00;99.90
47600;DHT22;33323;52.124;6.018;2023-06-22T10:48:56;24.90;99.90
47600;DHT22;33323;52.124;6.018;2023-06-22T10:51:25;24.90;99.90
47600;DHT22;33323;52.124;6.018;2023-06-22T10:53:55;25.00;99.90
47600;DHT22;33323;52.124;6.018;2023-06-22T10:56:23;25.00;99.90
47600;DHT22;33323;52.124;6.018;2023-06-22T10:58:50;25.10;99.90
47600;DHT22;33323;52.124;6.018;2023-06-22T11:01:17;25.10;99.90
47600;DHT22;33323;52.124;6.018;2023-06-22T11:04:02;25.20;99.90
47600;DHT22;33323;52.124;6.018;2023-06-22T11:06:30;25.30;99.90
47600;DHT22;33323;52.124;6.018;2023-06-22T11:08:58;25.40;99.90
47600;DHT22;33323;52.124;6.018;2023-06-22T11:11:43;25.40;99.90
47600;DHT22;33323;52.124;6.018;2023-06-22T11:14:10;25.50;99.90
47600;DHT22;33323;52.124;6.018;2023-06-22T11:16:38;25.50;99.90
47600;DHT22;33323;52.124;6.018;2023-06-22T11:19:05;25.50;99.90
47600;DHT22;33323;52.124;6.018;2023-06-22T11:21:33;25.50;99.90
47600;DHT22;33323;52.124;6.018;2023-06-22T11:24:01;25.50;99.90
47600;DHT22;33323;52.124;6.018;2023-06-22T11:26:28;25.50;99.90
47600;DHT22;33323;52.124;6.018;2023-06-22T11:28:56;25.50;99.90
47600;DHT22;33323;52.124;6.018;2023-06-22T11:31:24;25.50;99.90
47600;DHT22;33323;52.124;6.018;2023-06-22T11:33:53;25.30;99.90
47600;DHT22;33323;52.124;6.018;2023-06-22T11:36:20;25.50;99.90
47600;DHT22;33323;52.124;6.018;2023-06-22T11:38:48;25.60;99.90
47600;DHT22;33323;52.124;6.018;2023-06-22T11:41:16;25.50;99.90
47600;DHT22;33323;52.124;6.018;2023-06-22T11:43:45;25.50;99.90
47600;DHT22;33323;52.124;6.018;2023-06-22T11:46:12;25.40;99.90
47600;DHT22;33323;52.124;6.018;2023-06-22T11:48:39;25.40;99.90
47600;DHT22;33323;52.124;6.018;2023-06-22T11:51:07;25.40;99.90
47600;DHT22;33323;52.124;6.018;2023-06-22T11:53:35;25.40;99.90
47600;DHT22;33323;52.124;6.018;2023-06-22T11:56:03;25.20;99.90
47600;DHT22;33323;52.124;6.018;2023-06-22T11:58:30;25.20;99.90
47600;DHT22;33323;52.124;6.018;2023-06-22T12:00:58;25.10;99.90
47600;DHT22;33323;52.124;6.018;2023-06-22T12:03:25;25.00;99.90
47600;DHT22;33323;52.124;6.018;2023-06-22T12:05:53;24.90;99.90
47600;DHT22;33323;52.124;6.018;2023-06-22T12:08:21;24.80;99.90
47600;DHT22;33323;52.124;6.018;2023-06-22T12:10:49;24.80;99.90
47600;DHT22;33323;52.124;6.018;2023-06-22T12:13:17;24.80;99.90
47600;DHT22;33323;52.124;6.018;2023-06-22T12:15:45;24.60;99.90
47600;DHT22;33323;52.124;6.018;2023-06-22T12:18:13;24.60;99.90
47600;DHT22;33323;52.124;6.018;2023-06-22T12:20:43;24.50;99.90
47600;DHT22;33323;52.124;6.018;2023-06-22T12:23:11;24.40;99.90
47600;DHT22;33323;52.124;6.018;2023-06-22T12:25:39;24.30;99.90
47600;DHT22;33323;52.124;6.018;2023-06-22T12:28:06;24.10;99.90
47600;DHT22;33323;52.124;6.018;2023-06-22T12:30:34;24.10;99.90
47600;DHT22;33323;52.124;6.018;2023-06-22T12:33:02;24.20;99.90
47600;DHT22;33323;52.124;6.018;2023-06-22T12:35:30;24.30;99.90
47600;DHT22;33323;52.124;6.018;2023-06-22T12:37:58;24.30;99.90
47600;DHT22;33323;52.124;6.018;2023-06-22T12:40:26;24.30;99.90
47600;DHT22;33323;52.124;6.018;2023-06-22T12:42:53;24.50;99.90
47600;DHT22;33323;52.124;6.018;2023-06-22T12:45:21;24.40;99.90
47600;DHT22;33323;52.124;6.018;2023-06-22T12:47:49;24.50;99.90
47600;DHT22;33323;52.124;6.018;2023-06-22T12:50:17;24.50;99.90
47600;DHT22;33323;52.124;6.018;2023-06-22T12:52:44;24.50;99.90
47600;DHT22;33323;52.124;6.018;2023-06-22T12:55:12;24.50;99.90
47600;DHT22;33323;52.124;6.018;2023-06-22T12:57:40;24.30;99.90
47600;DHT22;33323;52.124;6.018;2023-06-22T13:00:08;24.40;99.90
47600;DHT22;33323;52.124;6.018;2023-06-22T13:02:37;24.40;99.90
47600;DHT22;33323;52.124;6.018;2023-06-22T13:05:05;24.40;99.90
47600;DHT22;33323;52.124;6.018;2023-06-22T13:07:32;24.30;99.90
47600;DHT22;33323;52.124;6.018;2023-06-22T13:10:00;24.00;99.90
47600;DHT22;33323;52.124;6.018;2023-06-22T13:12:28;23.70;99.90
47600;DHT22;33323;52.124;6.018;2023-06-22T13:14:56;23.50;99.90
47600;DHT22;33323;52.124;6.018;2023-06-22T13:17:24;23.20;99.90
47600;DHT22;33323;52.124;6.018;2023-06-22T13:19:51;23.00;99.90
47600;DHT22;33323;52.124;6.018;2023-06-22T13:22:35;22.70;99.90
47600;DHT22;33323;52.124;6.018;2023-06-22T13:25:10;22.50;99.90
47600;DHT22;33323;52.124;6.018;2023-06-22T13:27:46;22.50;99.90
47600;DHT22;33323;52.124;6.018;2023-06-22T13:30:14;22.40;99.90
47600;DHT22;33323;52.124;6.018;2023-06-22T13:32:42;22.40;99.90
47600;DHT22;33323;52.124;6.018;2023-06-22T13:35:10;22.50;99.90
47600;DHT22;33323;52.124;6.018;2023-06-22T13:37:39;22.50;99.90
47600;DHT22;33323;52.124;6.018;2023-06-22T13:40:07;22.30;99.90
47600;DHT22;33323;52.124;6.018;2023-06-22T13:42:35;22.20;99.90
47600;DHT22;33323;52.124;6.018;2023-06-22T13:45:03;22.10;99.90
47600;DHT22;33323;52.124;6.018;2023-06-22T13:47:31;22.10;99.90
47600;DHT22;33323;52.124;6.018;2023-06-22T13:49:59;22.10;99.90
47600;DHT22;33323;52.124;6.018;2023-06-22T13:52:26;22.10;99.90
47600;DHT22;33323;52.124;6.018;2023-06-22T13:54:53;22.10;99.90
47600;DHT22;33323;52.124;6.018;2023-06-22T13:57:21;22.00;99.90
47600;DHT22;33323;52.124;6.018;2023-06-22T13:59:48;21.90;99.90
47600;DHT22;33323;52.124;6.018;2023-06-22T14:02:16;21.60;99.90
47600;DHT22;33323;52.124;6.018;2023-06-22T14:04:43;21.50;99.90
47600;DHT22;33323;52.124;6.018;2023-06-22T14:07:11;21.40;99.90
47600;DHT22;33323;52.124;6.018;2023-06-22T14:09:42;21.30;99.90
47600;DHT22;33323;52.124;6.018;2023-06-22T14:12:10;21.30;99.90
47600;DHT22;33323;52.124;6.018;2023-06-22T14:14:37;21.30;99.90
47600;DHT22;33323;52.124;6.018;2023-06-22T14:17:05;21.10;99.90
47600;DHT22;33323;52.124;6.018;2023-06-22T14:19:32;21.00;99.90
47600;DHT22;33323;52.124;6.018;2023-06-22T14:21:59;20.80;99.90
47600;DHT22;33323;52.124;6.018;2023-06-22T14:24:26;20.70;99.90
47600;DHT22;33323;52.124;6.018;2023-06-22T14:26:56;20.50;99.90
47600;DHT22;33323;52.124;6.018;2023-06-22T14:29:24;20.50;99.90
47600;DHT22;33323;52.124;6.018;2023-06-22T14:31:52;20.50;99.90
47600;DHT22;33323;52.124;6.018;2023-06-22T14:34:20;20.50;99.90
47600;DHT22;33323;52.124;6.018;2023-06-22T14:36:47;20.50;99.90
47600;DHT22;33323;52.124;6.018;2023-06-22T14:39:14;20.40;99.90
47600;DHT22;33323;52.124;6.018;2023-06-22T14:41:41;20.40;99.90
47600;DHT22;33323;52.124;6.018;2023-06-22T14:44:09;20.40;99.90
47600;DHT22;33323;52.124;6.018;2023-06-22T14:46:36;20.40;99.90
47600;DHT22;33323;52.124;6.018;2023-06-22T14:49:03;20.40;99.90
47600;DHT22;33323;52.124;6.018;2023-06-22T14:51:31;20.50;99.90
47600;DHT22;33323;52.124;6.018;2023-06-22T14:53:58;20.50;99.90
47600;DHT22;33323;52.124;6.018;2023-06-22T14:56:26;20.60;99.90
47600;DHT22;33323;52.124;6.018;2023-06-22T14:58:53;20.60;99.90
47600;DHT22;33323;52.124;6.018;2023-06-22T15:01:20;20.50;99.90
47600;DHT22;33323;52.124;6.018;2023-06-22T15:03:48;20.50;99.90
47600;DHT22;33323;52.124;6.018;2023-06-22T15:06:16;20.40;99.90
47600;DHT22;33323;52.124;6.018;2023-06-22T15:08:43;20.30;99.90
47600;DHT22;33323;52.124;6.018;2023-06-22T15:11:11;20.30;99.90
47600;DHT22;33323;52.124;6.018;2023-06-22T15:13:40;20.20;99.90
47600;DHT22;33323;52.124;6.018;2023-06-22T15:16:08;20.30;99.90
47600;DHT22;33323;52.124;6.018;2023-06-22T15:18:36;20.40;99.90
47600;DHT22;33323;52.124;6.018;2023-06-22T15:21:04;20.60;99.90
47600;DHT22;33323;52.124;6.018;2023-06-22T15:23:32;20.60;99.90
47600;DHT22;33323;52.124;6.018;2023-06-22T15:26:02;20.60;99.90
47600;DHT22;33323;52.124;6.018;2023-06-22T15:28:32;20.50;99.90
47600;DHT22;33323;52.124;6.018;2023-06-22T15:31:02;20.40;99.90
47600;DHT22;33323;52.124;6.018;2023-06-22T15:33:29;20.40;99.90
47600;DHT22;33323;52.124;6.018;2023-06-22T15:35:59;20.50;99.90
47600;DHT22;33323;52.124;6.018;2023-06-22T15:38:32;20.50;99.90
47600;DHT22;33323;52.124;6.018;2023-06-22T15:40:59;20.50;99.90
47600;DHT22;33323;52.124;6.018;2023-06-22T15:43:27;20.40;99.90
47600;DHT22;33323;52.124;6.018;2023-06-22T15:45:54;20.30;99.90